Time;durP1;ratioP1;P1;durP2;ratioP2;P2;SDS_P1;SDS_P2;PMS_P1;PMS_P2;Temp;Humidity;BMP_temperature;BMP_pressure;BME280_temperature;BME280_humidity;BME280_pressure;Samples;Min_cycle;Max_cycle;Signal;HPM_P1;HPM_P2
2023/11/25 00:00:53;;;;;;;9.88;1.85;;;;;;;0.73;95.65;99855.31;7395866;19;20372;-64
2023/11/25 00:03:21;;;;;;;7.40;1.92;;;;;;;0.75;95.58;99861.22;7393640;19;20384;-65
2023/11/25 00:05:49;;;;;;;5.25;1.63;;;;;;;0.72;95.18;99869.28;7394229;19;20436;-64
2023/11/25 00:08:16;;;;;;;5.90;1.67;;;;;;;0.72;95.19;99872.75;7397500;19;20377;-64
2023/11/25 00:10:43;;;;;;;7.05;1.70;;;;;;;0.72;95.06;99870.16;7396533;19;20357;-64
2023/11/25 00:13:11;;;;;;;7.25;1.80;;;;;;;0.69;94.81;99880.00;7394083;19;20364;-64
2023/11/25 00:15:40;;;;;;;7.65;2.20;;;;;;;0.70;94.72;99885.13;7395584;19;20689;-66
2023/11/25 00:18:07;;;;;;;10.02;2.13;;;;;;;0.71;94.83;99886.75;7395264;19;20438;-64
2023/11/25 00:20:36;;;;;;;5.05;1.50;;;;;;;0.72;94.31;99884.97;7395765;19;20415;-64
2023/11/25 00:23:04;;;;;;;9.93;2.20;;;;;;;0.74;94.66;99896.91;7394436;19;20352;-63
2023/11/25 00:25:31;;;;;;;8.18;1.90;;;;;;;0.74;94.29;99911.75;7395867;19;20370;-63
2023/11/25 00:27:58;;;;;;;8.68;2.17;;;;;;;0.72;93.80;99921.50;7396594;19;20377;-63
2023/11/25 00:30:25;;;;;;;7.72;1.75;;;;;;;0.71;93.98;99928.50;7394548;19;20339;-64
2023/11/25 00:32:52;;;;;;;7.47;1.88;;;;;;;0.71;94.14;99932.91;7396186;19;20376;-63
2023/11/25 00:35:19;;;;;;;6.03;1.70;;;;;;;0.69;93.80;99924.38;7395085;19;20852;-64
2023/11/25 00:37:46;;;;;;;5.60;1.65;;;;;;;0.67;93.66;99936.75;7394445;19;20814;-63
2023/11/25 00:40:15;;;;;;;9.40;2.00;;;;;;;0.70;93.90;99916.44;7392193;19;20357;-63
2023/11/25 00:42:42;;;;;;;7.43;1.58;;;;;;;0.70;93.71;99916.44;7395630;19;20372;-63
2023/11/25 00:45:10;;;;;;;8.57;1.85;;;;;;;0.71;93.49;99932.91;7395582;19;20340;-64
2023/11/25 00:47:41;;;;;;;13.27;2.10;;;;;;;0.71;93.53;99933.75;7394084;19;20411;-63
2023/11/25 00:50:10;;;;;;;6.47;2.03;;;;;;;0.70;93.41;99941.69;7395091;19;20348;-63
2023/11/25 00:52:37;;;;;;;8.45;1.85;;;;;;;0.73;93.18;99942.25;7392908;19;20419;-63
2023/11/25 00:55:06;;;;;;;6.97;1.83;;;;;;;0.72;93.20;99940.63;7393025;19;20712;-63
2023/11/25 00:57:34;;;;;;;7.43;1.63;;;;;;;0.74;93.45;99938.69;7391359;19;20361;-64
2023/11/25 01:00:04;;;;;;;8.82;2.00;;;;;;;0.73;93.26;99941.44;7393908;19;20389;-64
2023/11/25 01:02:31;;;;;;;9.75;2.05;;;;;;;0.74;93.41;99943.91;7393465;19;20743;-63
2023/11/25 01:04:58;;;;;;;7.97;1.90;;;;;;;0.73;93.20;99965.75;7393024;19;20356;-63
2023/11/25 01:07:25;;;;;;;7.57;1.98;;;;;;;0.77;93.14;99964.53;7392661;19;20377;-63
2023/11/25 01:09:52;;;;;;;8.48;2.03;;;;;;;0.75;92.76;99965.63;7392611;19;20416;-63
2023/11/25 01:12:18;;;;;;;10.82;2.00;;;;;;;0.79;93.08;99965.25;7393718;19;20368;-63
2023/11/25 01:14:45;;;;;;;7.57;1.95;;;;;;;0.77;92.56;99968.94;7392528;19;20749;-63
2023/11/25 01:17:12;;;;;;;8.52;1.85;;;;;;;0.79;92.98;99960.03;7393059;19;20344;-63
2023/11/25 01:19:39;;;;;;;8.07;1.95;;;;;;;0.81;92.95;99965.94;7394772;19;20742;-64
2023/11/25 01:22:06;;;;;;;7.85;2.17;;;;;;;0.79;93.10;99973.06;7393360;19;20357;-63
2023/11/25 01:24:34;;;;;;;8.52;2.00;;;;;;;0.80;92.97;99972.09;7393904;19;20357;-64
2023/11/25 01:27:00;;;;;;;5.63;1.65;;;;;;;0.74;93.16;99963.97;7394254;19;20420;-63
2023/11/25 01:29:27;;;;;;;6.80;1.92;;;;;;;0.73;93.56;99967.56;7393274;19;20360;-63
2023/11/25 01:31:54;;;;;;;7.70;2.10;;;;;;;0.71;93.57;99967.66;7394045;19;20345;-63
2023/11/25 01:34:21;;;;;;;6.57;1.90;;;;;;;0.68;93.53;99970.56;7391901;19;21038;-63
2023/11/25 01:36:48;;;;;;;9.07;2.00;;;;;;;0.69;93.66;99974.81;7394122;19;20914;-64
2023/11/25 01:39:14;;;;;;;10.10;2.30;;;;;;;0.69;93.94;99972.19;7387961;19;20368;-63
2023/11/25 01:41:43;;;;;;;6.80;2.00;;;;;;;0.67;94.07;99968.88;7390076;19;20357;-64
2023/11/25 01:44:12;;;;;;;8.05;2.33;;;;;;;0.67;94.20;99968.06;7392837;19;20373;-63
2023/11/25 01:46:42;;;;;;;6.35;1.60;;;;;;;0.65;94.03;99981.22;7388907;19;20372;-63
2023/11/25 01:49:14;;;;;;;6.47;2.20;;;;;;;0.66;94.04;99972.47;7382641;19;20363;-63
2023/11/25 01:51:44;;;;;;;7.73;1.73;;;;;;;0.66;94.01;99972.47;7385422;19;20436;-63
2023/11/25 01:54:15;;;;;;;7.07;2.22;;;;;;;0.62;94.29;99976.28;7391408;19;20710;-63
2023/11/25 01:56:46;;;;;;;9.63;2.28;;;;;;;0.63;94.27;99967.47;7388572;19;20360;-63
2023/11/25 01:59:15;;;;;;;7.57;2.03;;;;;;;0.62;94.34;99968.47;7387679;19;20378;-63
2023/11/25 02:01:43;;;;;;;8.00;2.28;;;;;;;0.64;94.49;99963.09;7391225;19;20332;-63
2023/11/25 02:04:11;;;;;;;7.20;2.05;;;;;;;0.61;94.26;99975.44;7390768;19;20380;-63
2023/11/25 02:06:38;;;;;;;9.70;2.33;;;;;;;0.60;94.81;99978.19;7391698;19;20379;-63
2023/11/25 02:09:04;;;;;;;7.43;2.30;;;;;;;0.58;94.71;99974.88;7384731;19;20394;-63
2023/11/25 02:11:31;;;;;;;6.97;1.90;;;;;;;0.57;94.89;99973.22;7390371;19;20378;-63
2023/11/25 02:13:58;;;;;;;7.35;2.10;;;;;;;0.59;95.10;99976.53;7391012;19;20440;-62
2023/11/25 02:16:25;;;;;;;7.38;2.05;;;;;;;0.62;95.38;99984.13;7389433;19;20888;-62
2023/11/25 02:18:53;;;;;;;10.52;2.28;;;;;;;0.63;95.20;99977.91;7389154;19;20580;-61
2023/11/25 02:21:20;;;;;;;8.93;2.15;;;;;;;0.65;94.99;99970.78;7390956;19;20376;-62
2023/11/25 02:23:47;;;;;;;8.37;2.17;;;;;;;0.67;95.25;99968.88;7390248;19;20373;-62
2023/11/25 02:26:14;;;;;;;9.05;2.20;;;;;;;0.68;94.92;99965.34;7390303;19;20368;-62
2023/11/25 02:28:41;;;;;;;8.55;2.22;;;;;;;0.71;95.00;99972.88;7388633;19;20647;-62
2023/11/25 02:31:08;;;;;;;10.50;2.03;;;;;;;0.72;94.91;99969.34;7388513;19;20328;-62
2023/11/25 02:33:34;;;;;;;7.85;2.30;;;;;;;0.73;94.84;99970.16;7389412;19;20368;-61
2023/11/25 02:36:03;;;;;;;7.73;2.00;;;;;;;0.71;94.93;99967.66;7390415;19;20388;-62
2023/11/25 02:38:30;;;;;;;10.07;1.90;;;;;;;0.70;94.83;99967.78;7388335;19;20945;-62
2023/11/25 02:40:57;;;;;;;7.95;2.28;;;;;;;0.70;95.07;99968.63;7390688;19;20449;-62
2023/11/25 02:43:24;;;;;;;10.88;2.63;;;;;;;0.70;94.88;99973.88;7389907;19;20360;-62
2023/11/25 02:45:50;;;;;;;8.50;2.25;;;;;;;0.70;94.96;99973.00;7390864;19;20360;-62
2023/11/25 02:48:17;;;;;;;7.32;2.33;;;;;;;0.69;94.98;99972.19;7389309;19;20369;-61
2023/11/25 02:50:44;;;;;;;9.52;2.50;;;;;;;0.70;95.11;99983.44;7389553;19;20357;-61
2023/11/25 02:53:11;;;;;;;10.68;2.53;;;;;;;0.71;95.15;99974.69;7389214;19;20435;-62
2023/11/25 02:55:39;;;;;;;8.88;2.53;;;;;;;0.72;95.07;99982.41;7391245;19;20375;-61
2023/11/25 02:58:07;;;;;;;8.13;2.30;;;;;;;0.78;94.99;99973.19;7390880;19;20706;-62
2023/11/25 03:00:39;;;;;;;10.20;2.53;;;;;;;0.80;95.17;99973.91;7389262;19;20423;-62
2023/11/25 03:03:12;;;;;;;9.57;2.38;;;;;;;0.85;95.07;99973.50;7385843;19;20424;-60
2023/11/25 03:05:46;;;;;;;13.98;2.50;;;;;;;0.92;95.01;99974.66;7388220;19;20345;-61
2023/11/25 03:08:13;;;;;;;11.55;2.55;;;;;;;0.95;95.09;99971.75;7389272;19;20347;-61
2023/11/25 03:10:46;;;;;;;11.50;2.72;;;;;;;1.01;94.87;99971.25;7389726;19;20851;-62
2023/11/25 03:13:14;;;;;;;7.90;2.30;;;;;;;1.05;94.89;99966.59;7390111;19;20686;-62
2023/11/25 03:15:41;;;;;;;10.35;2.38;;;;;;;1.12;94.87;99959.88;7390529;19;20352;-62
2023/11/25 03:18:09;;;;;;;10.55;2.20;;;;;;;1.16;94.92;99969.94;7389317;19;20357;-61
2023/11/25 03:20:37;;;;;;;14.57;2.95;;;;;;;1.20;94.70;99957.44;7392655;19;20897;-61
2023/11/25 03:23:04;;;;;;;11.48;2.60;;;;;;;1.22;94.70;99963.34;7393333;19;20435;-61
2023/11/25 03:25:31;;;;;;;10.73;2.80;;;;;;;1.28;94.68;99962.00;7395349;19;20416;-59
2023/11/25 03:27:58;;;;;;;11.05;2.50;;;;;;;1.33;94.85;99970.25;7398225;19;20356;-61
2023/11/25 03:30:26;;;;;;;10.95;2.70;;;;;;;1.36;94.70;99969.97;7397504;19;20435;-61
2023/11/25 03:32:53;;;;;;;10.75;2.97;;;;;;;1.39;94.88;99965.31;7395484;19;20372;-62
2023/11/25 03:35:21;;;;;;;8.35;2.83;;;;;;;1.43;94.68;99961.47;7397305;19;20369;-62
2023/11/25 03:37:48;;;;;;;11.30;3.08;;;;;;;1.49;94.87;99964.50;7397190;19;20368;-61
2023/11/25 03:40:15;;;;;;;11.60;2.70;;;;;;;1.54;94.79;99965.78;7395412;19;20908;-61
2023/11/25 03:42:46;;;;;;;13.30;3.00;;;;;;;1.58;94.84;99959.31;7396402;19;20683;-62
2023/11/25 03:45:14;;;;;;;13.05;2.88;;;;;;;1.59;94.97;99960.97;7394925;19;20389;-62
2023/11/25 03:47:43;;;;;;;8.88;2.67;;;;;;;1.61;95.29;99956.41;7396673;19;20685;-62
2023/11/25 03:50:11;;;;;;;11.68;3.00;;;;;;;1.62;95.33;99958.09;7394722;19;20455;-61
2023/11/25 03:52:40;;;;;;;11.20;2.67;;;;;;;1.67;95.33;99959.47;7395982;19;20433;-60
2023/11/25 03:55:09;;;;;;;9.60;2.60;;;;;;;1.71;95.39;99963.47;7394094;19;20386;-61
2023/11/25 03:57:41;;;;;;;10.15;2.40;;;;;;;1.75;95.42;99964.84;7395739;19;20368;-61
2023/11/25 04:00:14;;;;;;;12.93;3.10;;;;;;;1.82;95.77;99965.94;7391715;19;20373;-62
2023/11/25 04:02:43;;;;;;;10.45;3.13;;;;;;;1.87;95.60;99958.53;7394363;19;20518;-61
2023/11/25 04:05:11;;;;;;;14.45;3.08;;;;;;;1.91;95.67;99959.06;7395160;19;20349;-61
2023/11/25 04:07:38;;;;;;;11.98;2.78;;;;;;;1.95;95.66;99960.44;7396399;19;20389;-61
2023/11/25 04:10:13;;;;;;;11.90;2.88;;;;;;;1.96;95.79;99949.84;7395806;19;20378;-61
2023/11/25 04:12:45;;;;;;;11.97;2.80;;;;;;;2.02;95.42;99941.47;7397334;19;20420;-60
2023/11/25 04:15:15;;;;;;;11.02;2.60;;;;;;;2.04;95.56;99944.75;7395550;19;20820;-61
2023/11/25 04:17:42;;;;;;;13.23;3.15;;;;;;;2.12;95.62;99940.63;7395340;19;20341;-60
2023/11/25 04:20:17;;;;;;;12.40;2.80;;;;;;;2.12;95.37;99936.19;7390964;19;20345;-59
2023/11/25 04:22:46;;;;;;;12.20;2.58;;;;;;;2.15;95.49;99935.94;7395104;19;20352;-59
2023/11/25 04:25:15;;;;;;;11.57;2.95;;;;;;;2.17;95.65;99928.78;7393150;19;20364;-61
2023/11/25 04:27:48;;;;;;;10.77;2.65;;;;;;;2.19;95.52;99928.63;7391387;19;20370;-61
2023/11/25 04:30:16;;;;;;;14.18;3.05;;;;;;;2.18;95.59;99926.97;7392839;19;20353;-62
2023/11/25 04:32:47;;;;;;;10.88;2.90;;;;;;;2.18;95.28;99919.13;7388795;19;20340;-60
2023/11/25 04:35:15;;;;;;;10.45;2.67;;;;;;;2.21;95.25;99924.06;7389180;19;20408;-59
2023/11/25 04:37:45;;;;;;;10.93;2.60;;;;;;;2.20;95.20;99917.19;7393189;19;20397;-61
2023/11/25 04:40:12;;;;;;;10.70;2.72;;;;;;;2.17;95.11;99910.47;7392841;19;20383;-59
2023/11/25 04:42:41;;;;;;;12.05;2.50;;;;;;;2.18;95.23;99904.25;7394489;19;20376;-61
2023/11/25 04:45:16;;;;;;;11.05;2.80;;;;;;;2.18;95.13;99895.59;7393979;19;20590;-61
2023/11/25 04:47:44;;;;;;;8.85;2.60;;;;;;;2.18;95.09;99892.97;7395801;19;20360;-60
2023/11/25 04:50:12;;;;;;;13.20;2.65;;;;;;;2.11;95.14;99884.03;7393358;19;20340;-62
2023/11/25 04:52:39;;;;;;;9.88;2.78;;;;;;;2.15;95.39;99870.53;7390810;19;20871;-60
2023/11/25 04:55:08;;;;;;;11.32;2.58;;;;;;;2.16;95.26;99872.16;7393677;19;20349;-60
2023/11/25 04:57:36;;;;;;;9.40;2.30;;;;;;;2.15;95.49;99872.34;7390982;19;20393;-61
2023/11/25 05:00:08;;;;;;;9.63;2.67;;;;;;;2.16;95.37;99868.72;7391497;19;20368;-61
2023/11/25 05:02:39;;;;;;;14.57;3.00;;;;;;;2.15;95.46;99870.53;7391569;19;20379;-60
2023/11/25 05:05:07;;;;;;;11.98;2.63;;;;;;;2.15;95.75;99880.19;7391146;19;20368;-60
2023/11/25 05:07:34;;;;;;;14.90;3.30;;;;;;;2.12;95.78;99873.41;7389839;19;20340;-61
2023/11/25 05:10:04;;;;;;;7.90;2.40;;;;;;;2.12;96.23;99881.25;7391998;19;20376;-60
2023/11/25 05:12:31;;;;;;;8.75;2.35;;;;;;;2.12;96.09;99885.69;7393586;19;20365;-60
2023/11/25 05:14:58;;;;;;;11.77;2.78;;;;;;;2.14;96.11;99876.72;7394844;19;20907;-59
2023/11/25 05:17:26;;;;;;;12.00;2.53;;;;;;;2.13;96.15;99882.94;7391577;19;20888;-60
2023/11/25 05:19:53;;;;;;;10.13;2.43;;;;;;;2.16;96.27;99873.97;7392483;19;20376;-59
2023/11/25 05:22:27;;;;;;;9.73;2.88;;;;;;;2.12;96.38;99873.41;7392084;19;20348;-60
2023/11/25 05:24:54;;;;;;;11.70;2.50;;;;;;;2.14;96.33;99870.66;7392940;19;20695;-60
2023/11/25 05:27:22;;;;;;;9.65;2.67;;;;;;;2.14;96.65;99871.47;7392677;19;20397;-57
2023/11/25 05:29:51;;;;;;;13.40;2.60;;;;;;;2.18;96.60;99866.81;7394398;19;20424;-59
2023/11/25 05:32:18;;;;;;;11.95;3.20;;;;;;;2.19;96.65;99860.59;7393274;19;20428;-60
2023/11/25 05:34:45;;;;;;;10.85;2.90;;;;;;;2.21;96.78;99864.75;7392889;19;20864;-60
2023/11/25 05:37:13;;;;;;;12.35;2.60;;;;;;;2.24;96.93;99864.44;7390509;19;20386;-60
2023/11/25 05:39:45;;;;;;;15.00;3.00;;;;;;;2.28;97.13;99857.13;7393074;19;20361;-59
2023/11/25 05:42:13;;;;;;;10.90;2.53;;;;;;;2.33;97.11;99868.00;7388262;19;20873;-59
2023/11/25 05:44:43;;;;;;;10.05;2.92;;;;;;;2.42;97.14;99867.16;7390406;19;20368;-59
2023/11/25 05:47:10;;;;;;;8.95;2.40;;;;;;;2.47;96.77;99856.25;7389771;19;20698;-60
2023/11/25 05:49:39;;;;;;;9.05;2.17;;;;;;;2.53;96.75;99857.47;7388126;19;20868;-59
2023/11/25 05:52:06;;;;;;;9.55;2.22;;;;;;;2.63;96.58;99871.34;7388258;19;20404;-61
2023/11/25 05:54:33;;;;;;;10.93;2.47;;;;;;;2.68;96.52;99866.53;7391673;19;20363;-59
2023/11/25 05:57:00;;;;;;;10.30;2.38;;;;;;;2.72;95.78;99873.13;7394204;19;20441;-61
2023/11/25 05:59:26;;;;;;;10.90;2.63;;;;;;;2.83;95.71;99887.81;7392653;19;20428;-59
2023/11/25 06:01:53;;;;;;;8.60;2.47;;;;;;;2.92;95.14;99859.94;7391190;19;20365;-60
2023/11/25 06:04:20;;;;;;;9.65;2.42;;;;;;;3.00;95.00;99850.34;7390334;19;20884;-60
2023/11/25 06:06:48;;;;;;;10.98;2.55;;;;;;;3.05;94.71;99855.16;7391226;19;20762;-61
2023/11/25 06:09:15;;;;;;;10.85;2.38;;;;;;;3.12;94.29;99850.16;7391788;19;20372;-60
2023/11/25 06:11:42;;;;;;;12.60;2.47;;;;;;;3.18;94.31;99855.63;7390266;19;20372;-60
2023/11/25 06:14:12;;;;;;;8.85;2.08;;;;;;;3.20;94.12;99851.06;7389888;19;20370;-59
2023/11/25 06:16:42;;;;;;;10.75;2.72;;;;;;;3.25;94.14;99869.81;7393101;19;20352;-57
2023/11/25 06:19:10;;;;;;;8.30;2.20;;;;;;;3.28;93.81;99854.75;7391695;19;20337;-61
2023/11/25 06:21:38;;;;;;;8.48;2.30;;;;;;;3.30;93.47;99860.66;7383021;19;20381;-62
2023/11/25 06:24:07;;;;;;;9.88;2.53;;;;;;;3.31;93.50;99855.25;7386711;19;20339;-61
2023/11/25 06:26:35;;;;;;;13.38;2.75;;;;;;;3.33;93.75;99866.41;7387266;19;20391;-63
2023/11/25 06:29:02;;;;;;;10.90;2.53;;;;;;;3.34;94.33;99862.84;7389899;19;20430;-63
2023/11/25 06:31:31;;;;;;;13.77;2.50;;;;;;;3.30;94.82;99851.00;7387994;19;20974;-64
2023/11/25 06:34:00;;;;;;;13.75;2.72;;;;;;;3.30;95.34;99843.13;7390653;19;20420;-63
2023/11/25 06:36:27;;;;;;;8.02;2.30;;;;;;;3.28;95.35;99845.09;7391675;19;20368;-64
2023/11/25 06:38:54;;;;;;;12.15;2.90;;;;;;;3.28;95.58;99839.84;7391933;19;20372;-64
2023/11/25 06:41:24;;;;;;;11.63;3.20;;;;;;;3.25;95.81;99851.44;7391530;19;20364;-64
2023/11/25 06:43:51;;;;;;;13.45;2.60;;;;;;;3.28;95.71;99844.25;7391309;19;20351;-64
2023/11/25 06:46:18;;;;;;;9.75;2.65;;;;;;;3.21;95.63;99844.84;7391531;19;20345;-64
2023/11/25 06:48:45;;;;;;;9.38;2.45;;;;;;;3.20;95.78;99843.19;7392265;19;20898;-64
2023/11/25 06:51:12;;;;;;;9.30;2.13;;;;;;;3.19;95.87;99840.75;7390666;19;20436;-64
2023/11/25 06:53:42;;;;;;;11.27;2.63;;;;;;;3.20;95.96;99850.22;7393712;19;20427;-64
2023/11/25 06:56:12;;;;;;;11.13;2.70;;;;;;;3.12;96.40;99850.97;7390457;19;20363;-64
2023/11/25 06:58:39;;;;;;;10.35;2.78;;;;;;;3.11;96.68;99865.06;7392693;19;20445;-64
2023/11/25 07:01:06;;;;;;;9.27;2.63;;;;;;;2.98;97.01;99860.16;7383179;19;20336;-64
2023/11/25 07:03:33;;;;;;;10.70;2.70;;;;;;;2.94;97.42;99829.97;7387748;19;20385;-64
2023/11/25 07:06:00;;;;;;;12.05;2.90;;;;;;;2.91;98.27;99838.16;7390924;19;20698;-64
2023/11/25 07:08:27;;;;;;;11.27;2.95;;;;;;;2.85;98.54;99844.78;7390825;19;20416;-64
2023/11/25 07:10:54;;;;;;;10.00;2.70;;;;;;;2.79;99.11;99850.59;7392794;19;20896;-64
2023/11/25 07:13:22;;;;;;;10.40;2.80;;;;;;;2.83;99.10;99856.38;7392138;19;20670;-65
2023/11/25 07:15:49;;;;;;;11.88;2.92;;;;;;;2.75;99.49;99864.97;7388928;19;20340;-67
2023/11/25 07:18:18;;;;;;;10.02;2.88;;;;;;;2.71;99.74;99853.13;7389557;19;20365;-67
2023/11/25 07:20:46;;;;;;;10.65;2.67;;;;;;;2.64;100.00;99852.06;7391538;19;20396;-68
2023/11/25 07:23:14;;;;;;;10.68;2.97;;;;;;;2.68;100.00;99848.19;7388997;19;20394;-69
2023/11/25 07:25:42;;;;;;;11.52;2.95;;;;;;;2.64;100.00;99844.22;7388611;19;20369;-70
2023/11/25 07:28:11;;;;;;;11.97;3.73;;;;;;;2.62;100.00;99835.66;7382084;19;20393;-70
2023/11/25 07:30:41;;;;;;;13.65;3.20;;;;;;;2.57;100.00;99832.63;7390887;19;20383;-70
2023/11/25 07:33:09;;;;;;;12.40;3.13;;;;;;;2.59;100.00;99833.31;7388321;19;20360;-69
2023/11/25 07:35:37;;;;;;;12.98;3.28;;;;;;;2.56;100.00;99820.53;7387921;19;20478;-69
2023/11/25 07:38:04;;;;;;;17.73;3.72;;;;;;;2.57;100.00;99814.31;7388461;19;20357;-69
2023/11/25 07:40:31;;;;;;;11.30;3.10;;;;;;;2.48;100.00;99809.97;7390330;19;20356;-70
2023/11/25 07:42:58;;;;;;;14.02;3.78;;;;;;;2.51;100.00;99812.28;7386866;19;20364;-70
2023/11/25 07:45:25;;;;;;;13.82;3.63;;;;;;;2.52;100.00;99798.22;7389687;19;20352;-70
2023/11/25 07:47:52;;;;;;;14.52;3.63;;;;;;;2.48;100.00;99789.84;7389756;19;20367;-69
2023/11/25 07:50:21;;;;;;;10.77;3.10;;;;;;;2.49;100.00;99795.88;7383981;19;20707;-69
2023/11/25 07:52:50;;;;;;;12.27;3.20;;;;;;;2.51;100.00;99788.72;7380795;19;20852;-69
2023/11/25 07:55:18;;;;;;;17.48;3.40;;;;;;;2.55;100.00;99792.69;7383542;19;20389;-69
2023/11/25 07:57:49;;;;;;;14.07;3.40;;;;;;;2.51;100.00;99788.72;7384488;19;20401;-69
2023/11/25 08:00:17;;;;;;;11.70;3.38;;;;;;;2.52;100.00;99790.38;7380602;19;20372;-69
2023/11/25 08:02:49;;;;;;;12.80;3.70;;;;;;;2.56;100.00;99815.28;7384219;19;20371;-69
2023/11/25 08:05:22;;;;;;;9.73;3.05;;;;;;;2.54;100.00;99806.75;7387079;19;20389;-68
2023/11/25 08:07:51;;;;;;;13.20;3.53;;;;;;;2.59;100.00;99812.38;7393498;19;20344;-69
2023/11/25 08:10:24;;;;;;;13.07;3.40;;;;;;;2.59;100.00;99809.75;7392700;19;20372;-69
2023/11/25 08:12:51;;;;;;;8.52;3.03;;;;;;;2.55;100.00;99800.53;7395641;19;20641;-69
2023/11/25 08:15:18;;;;;;;12.77;2.80;;;;;;;2.59;100.00;99796.66;7396507;19;20360;-68
2023/11/25 08:17:46;;;;;;;11.45;3.13;;;;;;;2.63;100.00;99804.09;7396663;19;20454;-68
2023/11/25 08:20:13;;;;;;;11.43;3.00;;;;;;;2.67;100.00;99790.72;7394039;19;20348;-68
2023/11/25 08:22:40;;;;;;;9.23;2.75;;;;;;;2.65;100.00;99803.94;7395942;19;20344;-68
2023/11/25 08:25:08;;;;;;;9.77;2.55;;;;;;;2.63;100.00;99788.38;7395494;19;20370;-68
2023/11/25 08:27:39;;;;;;;10.80;3.08;;;;;;;2.68;100.00;99789.72;7396336;19;20373;-68
2023/11/25 08:30:08;;;;;;;9.07;2.42;;;;;;;2.72;100.00;99786.69;7395334;19;20389;-68
2023/11/25 08:32:42;;;;;;;9.88;2.40;;;;;;;2.75;100.00;99794.25;7396765;19;20352;-67
2023/11/25 08:35:09;;;;;;;8.38;2.60;;;;;;;2.76;100.00;99795.91;7394346;19;20876;-67
2023/11/25 08:37:38;;;;;;;9.18;2.55;;;;;;;2.76;100.00;99795.06;7394924;19;20897;-67
2023/11/25 08:40:09;;;;;;;9.07;2.70;;;;;;;2.82;100.00;99781.38;7392882;19;20353;-68
2023/11/25 08:42:36;;;;;;;8.73;2.60;;;;;;;2.88;100.00;99779.97;7397231;19;20373;-67
2023/11/25 08:45:04;;;;;;;8.85;2.47;;;;;;;2.88;100.00;99779.97;7393446;19;20359;-67
2023/11/25 08:47:32;;;;;;;9.30;2.42;;;;;;;2.95;100.00;99773.16;7396587;19;20984;-67
2023/11/25 08:49:59;;;;;;;10.55;2.30;;;;;;;3.00;100.00;99794.53;7394665;19;20361;-67
2023/11/25 08:52:27;;;;;;;9.75;2.40;;;;;;;3.04;100.00;99790.63;7393727;19;20352;-67
2023/11/25 08:54:54;;;;;;;11.75;2.75;;;;;;;3.12;100.00;99777.59;7388497;19;20372;-67
2023/11/25 08:57:21;;;;;;;8.45;2.30;;;;;;;3.15;100.00;99840.19;7395331;19;20356;-67
2023/11/25 08:59:48;;;;;;;6.50;2.05;;;;;;;3.28;100.00;99778.72;7392820;19;20396;-67
2023/11/25 09:02:21;;;;;;;7.40;2.25;;;;;;;3.26;100.00;99794.59;7393501;19;20690;-66
2023/11/25 09:04:49;;;;;;;7.47;2.17;;;;;;;3.28;100.00;99790.03;7395569;19;20397;-67
2023/11/25 09:07:32;;;;;;;6.20;2.00;;;;;;;3.38;100.00;99797.81;7394480;19;20367;-67
2023/11/25 09:10:05;;;;;;;7.47;1.90;;;;;;;3.43;100.00;99800.81;7394107;19;20703;-66
2023/11/25 09:12:32;;;;;;;9.07;2.20;;;;;;;3.46;100.00;99790.00;7393784;19;20352;-66
2023/11/25 09:14:59;;;;;;;9.10;2.20;;;;;;;3.51;100.00;99795.66;7394101;19;20360;-67
2023/11/25 09:17:26;;;;;;;6.80;1.80;;;;;;;3.53;100.00;99806.81;7391034;19;20799;-67
2023/11/25 09:19:54;;;;;;;6.60;1.70;;;;;;;3.57;100.00;99804.69;7390073;19;20356;-67
2023/11/25 09:22:21;;;;;;;5.15;1.80;;;;;;;3.63;100.00;99811.94;7389196;19;20445;-67
2023/11/25 09:24:48;;;;;;;8.35;2.28;;;;;;;3.68;100.00;99807.91;7390273;19;20377;-67
2023/11/25 09:27:15;;;;;;;7.05;1.85;;;;;;;3.79;100.00;99808.66;7390053;19;20365;-67
2023/11/25 09:29:45;;;;;;;6.60;1.75;;;;;;;3.80;100.00;99812.91;7386720;19;20711;-67
2023/11/25 09:32:12;;;;;;;4.93;1.40;;;;;;;3.78;100.00;99812.22;7390345;19;20365;-67
2023/11/25 09:34:39;;;;;;;4.68;1.50;;;;;;;3.85;100.00;99800.16;7392859;19;20844;-67
2023/11/25 09:37:07;;;;;;;5.55;1.63;;;;;;;3.89;100.00;99801.50;7392118;19;20431;-67
2023/11/25 09:39:34;;;;;;;5.07;1.40;;;;;;;3.92;100.00;99816.13;7393645;19;20378;-67
2023/11/25 09:42:02;;;;;;;5.30;1.60;;;;;;;3.98;100.00;99849.63;7390112;19;20364;-67
2023/11/25 09:44:30;;;;;;;2.92;1.20;;;;;;;3.88;99.85;99807.72;7392939;19;20415;-67
2023/11/25 09:46:57;;;;;;;4.80;1.20;;;;;;;3.86;99.69;99807.03;7392035;19;20869;-67
2023/11/25 09:49:24;;;;;;;3.90;1.30;;;;;;;3.95;100.00;99800.88;7391097;19;20384;-66
2023/11/25 09:51:54;;;;;;;3.43;1.00;;;;;;;3.92;99.84;99814.31;7391364;19;20970;-67
2023/11/25 09:54:22;;;;;;;3.45;1.17;;;;;;;3.87;99.09;99803.47;7392367;19;20710;-66
2023/11/25 09:56:50;;;;;;;3.08;0.85;;;;;;;4.09;99.59;99797.69;7390677;19;20356;-66
2023/11/25 09:59:20;;;;;;;3.40;0.80;;;;;;;4.21;99.23;99800.06;7390338;19;20372;-66
2023/11/25 10:01:48;;;;;;;2.97;0.73;;;;;;;4.21;98.58;99807.94;7387826;19;20703;-66
2023/11/25 10:04:16;;;;;;;2.88;0.75;;;;;;;4.15;98.20;99801.50;7392438;19;20348;-66
2023/11/25 10:06:45;;;;;;;2.28;0.60;;;;;;;4.00;97.45;99822.25;7392643;19;20360;-66
2023/11/25 10:09:12;;;;;;;1.77;0.70;;;;;;;4.05;98.11;99804.22;7391594;19;20389;-66
2023/11/25 10:11:42;;;;;;;1.63;0.50;;;;;;;4.07;97.53;99788.31;7392438;19;20435;-66
2023/11/25 10:14:13;;;;;;;2.03;0.70;;;;;;;4.18;97.93;99797.72;7391889;19;20356;-66
2023/11/25 10:16:44;;;;;;;2.40;0.60;;;;;;;4.17;97.42;99793.47;7390695;19;20415;-66
2023/11/25 10:19:21;;;;;;;3.08;0.85;;;;;;;4.16;97.45;99783.94;7393687;19;20352;-66
2023/11/25 10:21:49;;;;;;;1.90;0.70;;;;;;;4.06;97.41;99813.75;7388829;19;20353;-66
2023/11/25 10:24:20;;;;;;;4.05;0.90;;;;;;;4.02;97.31;99812.41;7390960;19;20365;-65
2023/11/25 10:26:49;;;;;;;3.22;1.05;;;;;;;4.06;97.41;99798.00;7391626;19;20436;-66
2023/11/25 10:29:19;;;;;;;2.92;0.90;;;;;;;4.04;97.56;99792.09;7391840;19;20852;-66
2023/11/25 10:31:56;;;;;;;2.17;0.82;;;;;;;3.99;97.84;99802.22;7389906;19;20356;-66
2023/11/25 10:34:24;;;;;;;2.65;1.00;;;;;;;4.07;97.86;99794.38;7390194;19;20356;-66
2023/11/25 10:36:52;;;;;;;2.97;1.02;;;;;;;4.15;97.73;99790.19;7391113;19;20360;-66
2023/11/25 10:39:20;;;;;;;3.88;1.27;;;;;;;4.26;98.05;99793.34;7391292;19;20912;-66
2023/11/25 10:41:51;;;;;;;4.20;1.38;;;;;;;4.36;97.64;99788.00;7391076;19;20899;-65
2023/11/25 10:44:20;;;;;;;3.70;1.20;;;;;;;4.40;96.96;99799.84;7391294;19;20368;-65
2023/11/25 10:46:47;;;;;;;4.30;1.30;;;;;;;4.36;96.30;99803.75;7391876;19;20368;-66
2023/11/25 10:49:15;;;;;;;3.20;1.20;;;;;;;4.32;96.52;99793.72;7392256;19;20369;-66
2023/11/25 10:51:43;;;;;;;3.72;1.15;;;;;;;4.27;96.17;99796.78;7388116;19;20365;-65
2023/11/25 10:54:12;;;;;;;4.97;1.55;;;;;;;4.29;96.50;99786.97;7389443;19;20435;-65
2023/11/25 10:56:40;;;;;;;4.05;1.50;;;;;;;4.31;96.75;99795.50;7391265;19;20364;-65
2023/11/25 10:59:12;;;;;;;4.32;1.30;;;;;;;4.28;96.90;99803.69;7390572;19;20442;-65
2023/11/25 11:01:42;;;;;;;3.80;1.40;;;;;;;4.32;96.48;99797.16;7388177;19;20358;-66
2023/11/25 11:04:31;;;;;;;4.03;1.60;;;;;;;4.39;96.69;99807.84;7388415;19;20400;-66
2023/11/25 11:07:03;;;;;;;6.32;1.80;;;;;;;4.43;96.73;99807.38;7391660;19;20353;-65
2023/11/25 11:09:35;;;;;;;4.93;2.10;;;;;;;4.44;96.64;99800.31;7390606;19;20368;-65
2023/11/25 11:12:05;;;;;;;4.10;1.70;;;;;;;4.58;96.75;99791.84;7390623;19;20377;-65
2023/11/25 11:14:36;;;;;;;5.33;2.20;;;;;;;4.66;96.38;99796.31;7388108;19;20372;-65
2023/11/25 11:17:10;;;;;;;6.80;2.42;;;;;;;4.67;96.45;99795.31;7388938;19;20373;-65
2023/11/25 11:19:41;;;;;;;4.70;2.38;;;;;;;4.72;96.38;99793.06;7389700;19;20368;-65
2023/11/25 11:22:11;;;;;;;7.25;2.50;;;;;;;4.76;95.97;99783.88;7390022;19;20352;-65
2023/11/25 11:24:59;;;;;;;6.63;2.70;;;;;;;4.84;96.15;99789.13;7390528;19;21406;-65
2023/11/25 11:27:58;;;;;;;5.28;2.45;;;;;;;4.90;95.39;99804.28;7386825;19;20360;-65
2023/11/25 11:30:54;;;;;;;6.82;3.00;;;;;;;4.98;95.47;99787.72;7389310;19;20432;-65
2023/11/25 11:33:22;;;;;;;7.22;2.97;;;;;;;5.03;95.14;99787.22;7382635;19;20846;-65
2023/11/25 11:35:49;;;;;;;6.20;2.95;;;;;;;4.98;94.60;99782.44;7388882;19;20361;-65
2023/11/25 11:38:24;;;;;;;7.22;2.88;;;;;;;5.05;94.87;99787.88;7388290;19;20372;-65
2023/11/25 11:40:53;;;;;;;8.18;3.08;;;;;;;5.15;95.16;99777.22;7389165;19;20370;-65
2023/11/25 11:43:20;;;;;;;8.95;2.70;;;;;;;5.15;94.54;99785.94;7396327;19;20399;-65